sensor_id;sensor_type;location;lat;lon;timestamp;P1;durP1;ratioP1;P2;durP2;ratioP2
81697;SDS011;71109;52.514;5.708;2024-03-07T00:02:08;96.80;;;33.45;;
81697;SDS011;71109;52.514;5.708;2024-03-07T00:04:34;87.82;;;30.50;;
81697;SDS011;71109;52.514;5.708;2024-03-07T00:07:01;80.32;;;28.95;;
81697;SDS011;71109;52.514;5.708;2024-03-07T00:09:32;84.25;;;29.23;;
81697;SDS011;71109;52.514;5.708;2024-03-07T00:11:59;85.25;;;31.48;;
81697;SDS011;71109;52.514;5.708;2024-03-07T00:14:25;87.43;;;32.10;;
81697;SDS011;71109;52.514;5.708;2024-03-07T00:16:54;95.15;;;33.10;;
81697;SDS011;71109;52.514;5.708;2024-03-07T00:19:20;99.35;;;31.80;;
81697;SDS011;71109;52.514;5.708;2024-03-07T00:21:46;91.28;;;31.92;;
81697;SDS011;71109;52.514;5.708;2024-03-07T00:24:11;93.95;;;31.35;;
81697;SDS011;71109;52.514;5.708;2024-03-07T00:26:38;112.63;;;31.67;;
81697;SDS011;71109;52.514;5.708;2024-03-07T00:29:05;97.63;;;32.38;;
81697;SDS011;71109;52.514;5.708;2024-03-07T00:31:31;94.35;;;31.77;;
81697;SDS011;71109;52.514;5.708;2024-03-07T00:33:57;86.95;;;30.30;;
81697;SDS011;71109;52.514;5.708;2024-03-07T00:36:23;93.75;;;30.65;;
81697;SDS011;71109;52.514;5.708;2024-03-07T00:38:48;83.53;;;29.07;;
81697;SDS011;71109;52.514;5.708;2024-03-07T00:41:14;96.97;;;32.17;;
81697;SDS011;71109;52.514;5.708;2024-03-07T00:43:40;114.10;;;32.17;;
81697;SDS011;71109;52.514;5.708;2024-03-07T00:46:06;111.03;;;32.72;;
81697;SDS011;71109;52.514;5.708;2024-03-07T00:48:32;84.53;;;29.87;;
81697;SDS011;71109;52.514;5.708;2024-03-07T00:50:57;89.63;;;30.05;;
81697;SDS011;71109;52.514;5.708;2024-03-07T00:53:23;91.22;;;33.13;;
81697;SDS011;71109;52.514;5.708;2024-03-07T00:55:48;90.82;;;31.50;;
81697;SDS011;71109;52.514;5.708;2024-03-07T00:58:13;97.78;;;31.88;;
81697;SDS011;71109;52.514;5.708;2024-03-07T01:00:39;90.93;;;31.43;;
81697;SDS011;71109;52.514;5.708;2024-03-07T01:03:07;102.53;;;32.38;;
81697;SDS011;71109;52.514;5.708;2024-03-07T01:05:36;96.78;;;32.00;;
81697;SDS011;71109;52.514;5.708;2024-03-07T01:08:01;99.32;;;32.17;;
81697;SDS011;71109;52.514;5.708;2024-03-07T01:10:26;103.90;;;32.10;;
81697;SDS011;71109;52.514;5.708;2024-03-07T01:12:53;98.82;;;32.65;;
81697;SDS011;71109;52.514;5.708;2024-03-07T01:15:22;112.90;;;33.08;;
81697;SDS011;71109;52.514;5.708;2024-03-07T01:17:48;108.53;;;31.95;;
81697;SDS011;71109;52.514;5.708;2024-03-07T01:20:13;99.70;;;31.00;;
81697;SDS011;71109;52.514;5.708;2024-03-07T01:22:38;98.97;;;30.83;;
81697;SDS011;71109;52.514;5.708;2024-03-07T01:25:04;108.53;;;31.23;;
81697;SDS011;71109;52.514;5.708;2024-03-07T01:27:31;90.82;;;30.92;;
81697;SDS011;71109;52.514;5.708;2024-03-07T01:29:57;99.47;;;31.48;;
81697;SDS011;71109;52.514;5.708;2024-03-07T01:32:22;96.57;;;29.67;;
81697;SDS011;71109;52.514;5.708;2024-03-07T01:34:47;93.15;;;28.02;;
81697;SDS011;71109;52.514;5.708;2024-03-07T01:37:13;90.13;;;31.17;;
81697;SDS011;71109;52.514;5.708;2024-03-07T01:39:38;106.23;;;34.70;;
81697;SDS011;71109;52.514;5.708;2024-03-07T01:42:03;112.90;;;32.43;;
81697;SDS011;71109;52.514;5.708;2024-03-07T01:44:29;115.72;;;31.83;;
81697;SDS011;71109;52.514;5.708;2024-03-07T01:46:56;105.78;;;32.00;;
81697;SDS011;71109;52.514;5.708;2024-03-07T01:49:22;104.53;;;33.17;;
81697;SDS011;71109;52.514;5.708;2024-03-07T01:51:48;97.80;;;33.72;;
81697;SDS011;71109;52.514;5.708;2024-03-07T01:54:13;100.80;;;32.65;;
81697;SDS011;71109;52.514;5.708;2024-03-07T01:56:39;104.07;;;31.92;;
81697;SDS011;71109;52.514;5.708;2024-03-07T01:59:05;105.70;;;31.85;;
81697;SDS011;71109;52.514;5.708;2024-03-07T02:01:32;98.60;;;32.58;;
81697;SDS011;71109;52.514;5.708;2024-03-07T02:03:58;94.43;;;31.20;;
81697;SDS011;71109;52.514;5.708;2024-03-07T02:06:24;101.65;;;32.60;;
81697;SDS011;71109;52.514;5.708;2024-03-07T02:08:50;106.93;;;31.40;;
81697;SDS011;71109;52.514;5.708;2024-03-07T02:11:15;100.40;;;32.17;;
81697;SDS011;71109;52.514;5.708;2024-03-07T02:13:41;99.40;;;31.70;;
81697;SDS011;71109;52.514;5.708;2024-03-07T02:16:06;110.17;;;34.40;;
81697;SDS011;71109;52.514;5.708;2024-03-07T02:18:32;92.28;;;31.63;;
81697;SDS011;71109;52.514;5.708;2024-03-07T02:20:58;114.68;;;36.25;;
81697;SDS011;71109;52.514;5.708;2024-03-07T02:23:25;115.75;;;33.17;;
81697;SDS011;71109;52.514;5.708;2024-03-07T02:25:50;104.93;;;32.23;;
81697;SDS011;71109;52.514;5.708;2024-03-07T02:28:15;109.43;;;35.93;;
81697;SDS011;71109;52.514;5.708;2024-03-07T02:30:40;109.97;;;33.93;;
81697;SDS011;71109;52.514;5.708;2024-03-07T02:33:06;116.37;;;37.53;;
81697;SDS011;71109;52.514;5.708;2024-03-07T02:35:34;105.33;;;34.80;;
81697;SDS011;71109;52.514;5.708;2024-03-07T02:38:00;112.05;;;33.95;;
81697;SDS011;71109;52.514;5.708;2024-03-07T02:40:29;113.15;;;32.97;;
81697;SDS011;71109;52.514;5.708;2024-03-07T02:42:55;98.30;;;33.58;;
81697;SDS011;71109;52.514;5.708;2024-03-07T02:45:20;111.63;;;36.15;;
81697;SDS011;71109;52.514;5.708;2024-03-07T02:47:46;104.77;;;33.63;;
81697;SDS011;71109;52.514;5.708;2024-03-07T02:50:11;110.35;;;35.60;;
81697;SDS011;71109;52.514;5.708;2024-03-07T02:52:37;99.53;;;32.75;;
81697;SDS011;71109;52.514;5.708;2024-03-07T02:55:02;106.10;;;37.92;;
81697;SDS011;71109;52.514;5.708;2024-03-07T02:57:31;103.60;;;35.03;;
81697;SDS011;71109;52.514;5.708;2024-03-07T02:59:56;104.57;;;33.58;;
81697;SDS011;71109;52.514;5.708;2024-03-07T03:02:22;93.97;;;28.63;;
81697;SDS011;71109;52.514;5.708;2024-03-07T03:04:47;103.05;;;32.25;;
81697;SDS011;71109;52.514;5.708;2024-03-07T03:07:13;106.30;;;32.90;;
81697;SDS011;71109;52.514;5.708;2024-03-07T03:09:38;112.17;;;33.07;;
81697;SDS011;71109;52.514;5.708;2024-03-07T03:12:08;111.57;;;35.75;;
81697;SDS011;71109;52.514;5.708;2024-03-07T03:14:37;90.93;;;32.70;;
81697;SDS011;71109;52.514;5.708;2024-03-07T03:17:02;92.53;;;34.10;;
81697;SDS011;71109;52.514;5.708;2024-03-07T03:19:28;97.30;;;31.88;;
81697;SDS011;71109;52.514;5.708;2024-03-07T03:21:53;101.75;;;33.63;;
81697;SDS011;71109;52.514;5.708;2024-03-07T03:24:20;90.85;;;30.92;;
81697;SDS011;71109;52.514;5.708;2024-03-07T03:26:46;110.55;;;34.53;;
81697;SDS011;71109;52.514;5.708;2024-03-07T03:29:11;98.73;;;32.80;;
81697;SDS011;71109;52.514;5.708;2024-03-07T03:31:38;103.68;;;34.47;;
81697;SDS011;71109;52.514;5.708;2024-03-07T03:34:04;105.68;;;34.42;;
81697;SDS011;71109;52.514;5.708;2024-03-07T03:36:29;105.73;;;31.97;;
81697;SDS011;71109;52.514;5.708;2024-03-07T03:38:54;99.47;;;31.07;;
81697;SDS011;71109;52.514;5.708;2024-03-07T03:41:20;115.72;;;33.97;;
81697;SDS011;71109;52.514;5.708;2024-03-07T03:43:45;104.63;;;30.92;;
81697;SDS011;71109;52.514;5.708;2024-03-07T03:46:12;100.45;;;29.15;;
81697;SDS011;71109;52.514;5.708;2024-03-07T03:48:41;105.88;;;33.55;;
81697;SDS011;71109;52.514;5.708;2024-03-07T03:51:09;100.97;;;30.90;;
81697;SDS011;71109;52.514;5.708;2024-03-07T03:53:35;94.10;;;30.83;;
81697;SDS011;71109;52.514;5.708;2024-03-07T03:56:01;100.90;;;31.45;;
81697;SDS011;71109;52.514;5.708;2024-03-07T03:58:29;98.97;;;33.45;;
81697;SDS011;71109;52.514;5.708;2024-03-07T04:00:55;100.32;;;33.70;;
81697;SDS011;71109;52.514;5.708;2024-03-07T04:03:20;95.90;;;33.17;;
81697;SDS011;71109;52.514;5.708;2024-03-07T04:05:46;95.13;;;33.25;;
81697;SDS011;71109;52.514;5.708;2024-03-07T04:08:12;90.03;;;31.38;;
81697;SDS011;71109;52.514;5.708;2024-03-07T04:10:37;84.90;;;30.40;;
81697;SDS011;71109;52.514;5.708;2024-03-07T04:13:02;89.40;;;30.05;;
81697;SDS011;71109;52.514;5.708;2024-03-07T04:15:28;101.50;;;31.15;;
81697;SDS011;71109;52.514;5.708;2024-03-07T04:17:56;98.18;;;31.92;;
81697;SDS011;71109;52.514;5.708;2024-03-07T04:20:22;80.68;;;28.83;;
81697;SDS011;71109;52.514;5.708;2024-03-07T04:22:47;102.28;;;30.45;;
81697;SDS011;71109;52.514;5.708;2024-03-07T04:25:14;86.22;;;30.48;;
81697;SDS011;71109;52.514;5.708;2024-03-07T04:27:39;87.32;;;29.55;;
81697;SDS011;71109;52.514;5.708;2024-03-07T04:30:05;81.55;;;28.27;;
81697;SDS011;71109;52.514;5.708;2024-03-07T04:32:32;94.88;;;29.58;;
81697;SDS011;71109;52.514;5.708;2024-03-07T04:34:59;84.22;;;30.55;;
81697;SDS011;71109;52.514;5.708;2024-03-07T04:37:25;76.53;;;29.40;;
81697;SDS011;71109;52.514;5.708;2024-03-07T04:39:52;77.47;;;28.75;;
81697;SDS011;71109;52.514;5.708;2024-03-07T04:42:18;87.57;;;29.08;;
81697;SDS011;71109;52.514;5.708;2024-03-07T04:44:43;82.78;;;28.40;;
81697;SDS011;71109;52.514;5.708;2024-03-07T04:47:08;83.27;;;28.87;;
81697;SDS011;71109;52.514;5.708;2024-03-07T04:49:34;77.07;;;28.37;;
81697;SDS011;71109;52.514;5.708;2024-03-07T04:52:00;77.70;;;27.83;;
81697;SDS011;71109;52.514;5.708;2024-03-07T04:54:26;67.95;;;26.17;;
81697;SDS011;71109;52.514;5.708;2024-03-07T04:56:52;81.22;;;26.77;;
81697;SDS011;71109;52.514;5.708;2024-03-07T04:59:19;82.70;;;27.48;;
81697;SDS011;71109;52.514;5.708;2024-03-07T05:01:45;77.65;;;29.15;;
81697;SDS011;71109;52.514;5.708;2024-03-07T05:04:14;66.20;;;25.30;;
81697;SDS011;71109;52.514;5.708;2024-03-07T05:06:40;77.30;;;29.98;;
81697;SDS011;71109;52.514;5.708;2024-03-07T05:09:06;68.50;;;25.35;;
81697;SDS011;71109;52.514;5.708;2024-03-07T05:11:33;76.07;;;27.48;;
81697;SDS011;71109;52.514;5.708;2024-03-07T05:13:59;75.43;;;26.40;;
81697;SDS011;71109;52.514;5.708;2024-03-07T05:16:28;66.35;;;24.80;;
81697;SDS011;71109;52.514;5.708;2024-03-07T05:18:55;73.78;;;25.77;;
81697;SDS011;71109;52.514;5.708;2024-03-07T05:21:24;70.72;;;25.25;;
81697;SDS011;71109;52.514;5.708;2024-03-07T05:24:02;70.85;;;26.58;;
81697;SDS011;71109;52.514;5.708;2024-03-07T05:26:28;67.22;;;25.50;;
81697;SDS011;71109;52.514;5.708;2024-03-07T05:29:05;72.95;;;25.92;;
81697;SDS011;71109;52.514;5.708;2024-03-07T05:31:35;60.80;;;23.38;;
81697;SDS011;71109;52.514;5.708;2024-03-07T05:34:02;71.53;;;26.17;;
81697;SDS011;71109;52.514;5.708;2024-03-07T05:36:34;61.20;;;24.05;;
81697;SDS011;71109;52.514;5.708;2024-03-07T05:38:59;63.67;;;23.55;;
81697;SDS011;71109;52.514;5.708;2024-03-07T05:41:26;71.78;;;23.55;;
81697;SDS011;71109;52.514;5.708;2024-03-07T05:43:55;62.45;;;25.00;;
81697;SDS011;71109;52.514;5.708;2024-03-07T05:46:20;69.43;;;25.15;;
81697;SDS011;71109;52.514;5.708;2024-03-07T05:48:46;70.60;;;25.20;;
81697;SDS011;71109;52.514;5.708;2024-03-07T05:51:15;67.95;;;24.38;;
81697;SDS011;71109;52.514;5.708;2024-03-07T05:53:40;61.10;;;22.75;;
81697;SDS011;71109;52.514;5.708;2024-03-07T05:56:07;68.78;;;24.55;;
81697;SDS011;71109;52.514;5.708;2024-03-07T05:58:32;63.35;;;24.20;;
81697;SDS011;71109;52.514;5.708;2024-03-07T06:00:58;58.93;;;23.13;;
81697;SDS011;71109;52.514;5.708;2024-03-07T06:03:23;58.20;;;22.83;;
81697;SDS011;71109;52.514;5.708;2024-03-07T06:05:50;63.08;;;24.15;;
81697;SDS011;71109;52.514;5.708;2024-03-07T06:08:19;74.45;;;24.77;;
81697;SDS011;71109;52.514;5.708;2024-03-07T06:10:45;69.70;;;23.75;;
81697;SDS011;71109;52.514;5.708;2024-03-07T06:13:11;63.08;;;24.40;;
81697;SDS011;71109;52.514;5.708;2024-03-07T06:15:42;62.53;;;23.50;;
81697;SDS011;71109;52.514;5.708;2024-03-07T06:18:08;58.42;;;21.02;;
81697;SDS011;71109;52.514;5.708;2024-03-07T06:20:35;59.42;;;22.67;;
81697;SDS011;71109;52.514;5.708;2024-03-07T06:23:01;61.08;;;23.85;;
81697;SDS011;71109;52.514;5.708;2024-03-07T06:25:30;68.03;;;23.88;;
81697;SDS011;71109;52.514;5.708;2024-03-07T06:28:05;75.45;;;32.03;;
81697;SDS011;71109;52.514;5.708;2024-03-07T06:30:44;59.45;;;23.02;;
81697;SDS011;71109;52.514;5.708;2024-03-07T06:33:10;56.38;;;21.05;;
81697;SDS011;71109;52.514;5.708;2024-03-07T06:35:35;58.25;;;22.92;;
81697;SDS011;71109;52.514;5.708;2024-03-07T06:38:11;61.70;;;22.40;;
81697;SDS011;71109;52.514;5.708;2024-03-07T06:40:39;56.30;;;22.52;;
81697;SDS011;71109;52.514;5.708;2024-03-07T06:43:07;59.22;;;20.55;;
81697;SDS011;71109;52.514;5.708;2024-03-07T06:45:35;53.95;;;22.33;;
81697;SDS011;71109;52.514;5.708;2024-03-07T06:48:02;54.70;;;20.40;;
81697;SDS011;71109;52.514;5.708;2024-03-07T06:50:28;55.83;;;20.60;;
81697;SDS011;71109;52.514;5.708;2024-03-07T06:52:54;55.85;;;20.45;;
81697;SDS011;71109;52.514;5.708;2024-03-07T06:55:20;50.28;;;19.25;;
81697;SDS011;71109;52.514;5.708;2024-03-07T06:57:45;52.55;;;20.25;;
81697;SDS011;71109;52.514;5.708;2024-03-07T07:00:15;57.22;;;22.02;;
81697;SDS011;71109;52.514;5.708;2024-03-07T07:02:47;44.92;;;21.10;;
81697;SDS011;71109;52.514;5.708;2024-03-07T07:05:13;54.58;;;21.55;;
81697;SDS011;71109;52.514;5.708;2024-03-07T07:07:44;47.03;;;20.38;;
81697;SDS011;71109;52.514;5.708;2024-03-07T07:10:10;53.72;;;19.15;;
81697;SDS011;71109;52.514;5.708;2024-03-07T07:12:48;46.92;;;18.45;;
81697;SDS011;71109;52.514;5.708;2024-03-07T07:15:15;51.15;;;20.90;;
81697;SDS011;71109;52.514;5.708;2024-03-07T07:17:42;52.65;;;21.02;;
81697;SDS011;71109;52.514;5.708;2024-03-07T07:20:11;51.65;;;20.73;;
81697;SDS011;71109;52.514;5.708;2024-03-07T07:22:39;55.17;;;19.75;;
81697;SDS011;71109;52.514;5.708;2024-03-07T07:25:08;55.20;;;21.02;;
81697;SDS011;71109;52.514;5.708;2024-03-07T07:27:43;44.25;;;19.05;;
81697;SDS011;71109;52.514;5.708;2024-03-07T07:30:10;51.58;;;20.08;;
81697;SDS011;71109;52.514;5.708;2024-03-07T07:32:36;48.28;;;21.10;;
81697;SDS011;71109;52.514;5.708;2024-03-07T07:35:02;53.58;;;21.42;;
81697;SDS011;71109;52.514;5.708;2024-03-07T07:37:28;57.72;;;19.75;;
81697;SDS011;71109;52.514;5.708;2024-03-07T07:39:53;56.13;;;20.50;;
81697;SDS011;71109;52.514;5.708;2024-03-07T07:42:18;60.90;;;22.60;;
81697;SDS011;71109;52.514;5.708;2024-03-07T07:44:45;44.20;;;19.83;;
81697;SDS011;71109;52.514;5.708;2024-03-07T07:47:10;49.65;;;19.80;;
81697;SDS011;71109;52.514;5.708;2024-03-07T07:49:36;43.92;;;18.02;;
81697;SDS011;71109;52.514;5.708;2024-03-07T07:52:03;49.22;;;20.02;;
81697;SDS011;71109;52.514;5.708;2024-03-07T07:54:29;42.83;;;17.98;;
81697;SDS011;71109;52.514;5.708;2024-03-07T07:56:54;47.72;;;19.90;;
81697;SDS011;71109;52.514;5.708;2024-03-07T07:59:20;50.92;;;19.02;;
81697;SDS011;71109;52.514;5.708;2024-03-07T08:01:45;52.27;;;19.87;;
81697;SDS011;71109;52.514;5.708;2024-03-07T08:04:11;47.63;;;18.92;;
81697;SDS011;71109;52.514;5.708;2024-03-07T08:06:36;46.95;;;18.58;;
81697;SDS011;71109;52.514;5.708;2024-03-07T08:09:01;46.78;;;19.55;;
81697;SDS011;71109;52.514;5.708;2024-03-07T08:11:27;52.90;;;20.80;;
81697;SDS011;71109;52.514;5.708;2024-03-07T08:13:52;51.83;;;19.80;;
81697;SDS011;71109;52.514;5.708;2024-03-07T08:16:17;36.72;;;16.80;;
81697;SDS011;71109;52.514;5.708;2024-03-07T08:18:43;48.55;;;18.20;;
81697;SDS011;71109;52.514;5.708;2024-03-07T08:21:09;49.53;;;20.15;;
81697;SDS011;71109;52.514;5.708;2024-03-07T08:23:37;45.67;;;17.92;;
81697;SDS011;71109;52.514;5.708;2024-03-07T08:26:03;40.08;;;17.38;;
81697;SDS011;71109;52.514;5.708;2024-03-07T08:28:28;45.55;;;19.27;;
81697;SDS011;71109;52.514;5.708;2024-03-07T08:30:53;36.43;;;16.17;;
81697;SDS011;71109;52.514;5.708;2024-03-07T08:33:19;41.38;;;17.90;;
81697;SDS011;71109;52.514;5.708;2024-03-07T08:35:46;38.47;;;17.00;;
81697;SDS011;71109;52.514;5.708;2024-03-07T08:38:12;42.92;;;17.42;;
81697;SDS011;71109;52.514;5.708;2024-03-07T08:40:37;37.87;;;16.97;;
81697;SDS011;71109;52.514;5.708;2024-03-07T08:43:03;38.40;;;16.70;;
81697;SDS011;71109;52.514;5.708;2024-03-07T08:45:29;39.50;;;16.45;;
81697;SDS011;71109;52.514;5.708;2024-03-07T08:47:58;37.90;;;15.43;;
81697;SDS011;71109;52.514;5.708;2024-03-07T08:50:23;43.10;;;18.58;;
81697;SDS011;71109;52.514;5.708;2024-03-07T08:52:49;47.03;;;18.35;;
81697;SDS011;71109;52.514;5.708;2024-03-07T08:55:19;45.15;;;17.35;;
81697;SDS011;71109;52.514;5.708;2024-03-07T08:57:46;41.50;;;17.20;;
81697;SDS011;71109;52.514;5.708;2024-03-07T09:00:14;34.75;;;14.65;;
81697;SDS011;71109;52.514;5.708;2024-03-07T09:02:52;32.15;;;15.05;;
81697;SDS011;71109;52.514;5.708;2024-03-07T09:05:19;36.25;;;14.70;;
81697;SDS011;71109;52.514;5.708;2024-03-07T09:07:47;31.17;;;15.02;;
81697;SDS011;71109;52.514;5.708;2024-03-07T09:10:12;31.45;;;13.25;;
81697;SDS011;71109;52.514;5.708;2024-03-07T09:12:39;33.35;;;14.93;;
81697;SDS011;71109;52.514;5.708;2024-03-07T09:15:05;32.72;;;14.98;;
81697;SDS011;71109;52.514;5.708;2024-03-07T09:17:31;29.70;;;14.32;;
81697;SDS011;71109;52.514;5.708;2024-03-07T09:19:56;28.67;;;13.75;;
81697;SDS011;71109;52.514;5.708;2024-03-07T09:22:22;33.42;;;14.68;;
81697;SDS011;71109;52.514;5.708;2024-03-07T09:24:47;31.40;;;13.40;;
81697;SDS011;71109;52.514;5.708;2024-03-07T09:27:12;30.97;;;13.60;;
81697;SDS011;71109;52.514;5.708;2024-03-07T09:29:44;31.35;;;14.05;;
81697;SDS011;71109;52.514;5.708;2024-03-07T09:32:12;30.17;;;12.52;;
81697;SDS011;71109;52.514;5.708;2024-03-07T09:34:37;30.45;;;12.98;;
81697;SDS011;71109;52.514;5.708;2024-03-07T09:37:03;32.45;;;13.07;;
81697;SDS011;71109;52.514;5.708;2024-03-07T09:39:28;30.40;;;13.82;;
81697;SDS011;71109;52.514;5.708;2024-03-07T09:41:56;30.10;;;13.40;;
81697;SDS011;71109;52.514;5.708;2024-03-07T09:44:22;33.00;;;13.40;;
81697;SDS011;71109;52.514;5.708;2024-03-07T09:46:50;32.28;;;14.35;;
81697;SDS011;71109;52.514;5.708;2024-03-07T09:49:19;26.27;;;12.60;;
81697;SDS011;71109;52.514;5.708;2024-03-07T09:51:44;25.55;;;11.57;;
81697;SDS011;71109;52.514;5.708;2024-03-07T09:54:11;26.30;;;12.50;;
81697;SDS011;71109;52.514;5.708;2024-03-07T09:56:37;33.03;;;14.45;;
81697;SDS011;71109;52.514;5.708;2024-03-07T09:59:04;32.08;;;12.77;;
81697;SDS011;71109;52.514;5.708;2024-03-07T10:01:33;29.20;;;12.80;;
81697;SDS011;71109;52.514;5.708;2024-03-07T10:04:00;26.13;;;11.55;;
81697;SDS011;71109;52.514;5.708;2024-03-07T10:06:35;32.10;;;13.23;;
81697;SDS011;71109;52.514;5.708;2024-03-07T10:09:01;33.60;;;14.63;;
81697;SDS011;71109;52.514;5.708;2024-03-07T10:11:26;32.33;;;12.68;;
81697;SDS011;71109;52.514;5.708;2024-03-07T10:13:52;29.67;;;13.30;;
81697;SDS011;71109;52.514;5.708;2024-03-07T10:16:17;30.17;;;14.18;;
81697;SDS011;71109;52.514;5.708;2024-03-07T10:18:43;30.77;;;13.85;;
81697;SDS011;71109;52.514;5.708;2024-03-07T10:21:10;35.80;;;14.43;;
81697;SDS011;71109;52.514;5.708;2024-03-07T10:23:36;28.77;;;14.73;;
81697;SDS011;71109;52.514;5.708;2024-03-07T10:26:01;31.60;;;14.85;;
81697;SDS011;71109;52.514;5.708;2024-03-07T10:28:29;30.95;;;12.88;;
81697;SDS011;71109;52.514;5.708;2024-03-07T10:30:56;33.30;;;15.68;;
81697;SDS011;71109;52.514;5.708;2024-03-07T10:33:21;33.30;;;13.75;;
81697;SDS011;71109;52.514;5.708;2024-03-07T10:35:52;27.23;;;12.77;;
81697;SDS011;71109;52.514;5.708;2024-03-07T10:38:18;36.60;;;14.85;;
81697;SDS011;71109;52.514;5.708;2024-03-07T10:40:43;39.33;;;15.20;;
81697;SDS011;71109;52.514;5.708;2024-03-07T10:43:12;38.70;;;16.35;;
81697;SDS011;71109;52.514;5.708;2024-03-07T10:45:46;32.03;;;15.57;;
81697;SDS011;71109;52.514;5.708;2024-03-07T10:48:12;38.75;;;15.15;;
81697;SDS011;71109;52.514;5.708;2024-03-07T10:50:41;38.92;;;15.00;;
81697;SDS011;71109;52.514;5.708;2024-03-07T10:55:49;38.60;;;16.23;;
81697;SDS011;71109;52.514;5.708;2024-03-07T10:58:37;35.05;;;14.15;;
81697;SDS011;71109;52.514;5.708;2024-03-07T11:01:25;36.33;;;16.60;;
81697;SDS011;71109;52.514;5.708;2024-03-07T11:03:51;35.45;;;15.75;;
81697;SDS011;71109;52.514;5.708;2024-03-07T11:06:17;37.28;;;16.60;;
81697;SDS011;71109;52.514;5.708;2024-03-07T11:08:43;32.25;;;14.57;;
81697;SDS011;71109;52.514;5.708;2024-03-07T11:11:09;37.90;;;16.85;;
81697;SDS011;71109;52.514;5.708;2024-03-07T11:13:36;35.45;;;16.45;;
81697;SDS011;71109;52.514;5.708;2024-03-07T11:16:02;42.65;;;19.15;;
81697;SDS011;71109;52.514;5.708;2024-03-07T11:18:29;34.90;;;14.98;;
81697;SDS011;71109;52.514;5.708;2024-03-07T11:20:55;39.88;;;17.45;;
81697;SDS011;71109;52.514;5.708;2024-03-07T11:26:10;39.08;;;18.48;;
81697;SDS011;71109;52.514;5.708;2024-03-07T11:28:39;36.83;;;17.27;;
81697;SDS011;71109;52.514;5.708;2024-03-07T11:31:09;45.60;;;16.60;;
81697;SDS011;71109;52.514;5.708;2024-03-07T11:33:38;39.20;;;17.58;;
81697;SDS011;71109;52.514;5.708;2024-03-07T11:36:06;33.20;;;15.98;;
81697;SDS011;71109;52.514;5.708;2024-03-07T11:38:47;41.00;;;18.65;;
81697;SDS011;71109;52.514;5.708;2024-03-07T11:41:13;39.60;;;17.65;;
81697;SDS011;71109;52.514;5.708;2024-03-07T11:43:40;41.83;;;18.60;;
81697;SDS011;71109;52.514;5.708;2024-03-07T11:46:07;40.15;;;17.27;;
81697;SDS011;71109;52.514;5.708;2024-03-07T11:48:42;30.90;;;14.88;;
81697;SDS011;71109;52.514;5.708;2024-03-07T11:51:08;38.13;;;17.45;;
81697;SDS011;71109;52.514;5.708;2024-03-07T11:53:39;46.90;;;18.05;;
81697;SDS011;71109;52.514;5.708;2024-03-07T11:56:06;43.30;;;17.02;;
81697;SDS011;71109;52.514;5.708;2024-03-07T11:58:37;42.35;;;17.00;;
81697;SDS011;71109;52.514;5.708;2024-03-07T12:01:05;43.08;;;17.67;;
81697;SDS011;71109;52.514;5.708;2024-03-07T12:03:31;37.47;;;16.33;;
81697;SDS011;71109;52.514;5.708;2024-03-07T12:05:59;34.30;;;15.27;;
81697;SDS011;71109;52.514;5.708;2024-03-07T12:08:24;33.83;;;16.90;;
81697;SDS011;71109;52.514;5.708;2024-03-07T12:10:51;34.28;;;15.15;;
81697;SDS011;71109;52.514;5.708;2024-03-07T12:13:20;36.35;;;16.30;;
81697;SDS011;71109;52.514;5.708;2024-03-07T12:15:46;30.37;;;14.20;;
81697;SDS011;71109;52.514;5.708;2024-03-07T12:18:12;41.55;;;16.83;;
81697;SDS011;71109;52.514;5.708;2024-03-07T12:20:42;38.08;;;15.15;;
81697;SDS011;71109;52.514;5.708;2024-03-07T12:23:11;38.65;;;17.27;;
81697;SDS011;71109;52.514;5.708;2024-03-07T12:25:37;34.85;;;16.63;;
81697;SDS011;71109;52.514;5.708;2024-03-07T12:30:57;40.47;;;15.40;;
81697;SDS011;71109;52.514;5.708;2024-03-07T12:33:22;34.72;;;15.48;;
81697;SDS011;71109;52.514;5.708;2024-03-07T12:35:50;45.35;;;18.75;;
81697;SDS011;71109;52.514;5.708;2024-03-07T12:38:17;42.47;;;18.20;;
81697;SDS011;71109;52.514;5.708;2024-03-07T12:40:46;39.25;;;17.35;;
81697;SDS011;71109;52.514;5.708;2024-03-07T12:43:21;40.33;;;18.27;;
81697;SDS011;71109;52.514;5.708;2024-03-07T12:45:50;37.97;;;18.20;;
81697;SDS011;71109;52.514;5.708;2024-03-07T12:48:17;35.88;;;16.42;;
81697;SDS011;71109;52.514;5.708;2024-03-07T12:50:45;36.40;;;16.15;;
81697;SDS011;71109;52.514;5.708;2024-03-07T12:53:10;32.58;;;14.50;;
81697;SDS011;71109;52.514;5.708;2024-03-07T12:55:40;31.10;;;14.93;;
81697;SDS011;71109;52.514;5.708;2024-03-07T12:58:08;37.03;;;15.43;;
81697;SDS011;71109;52.514;5.708;2024-03-07T13:00:37;35.03;;;18.38;;
81697;SDS011;71109;52.514;5.708;2024-03-07T13:03:08;31.40;;;13.52;;
81697;SDS011;71109;52.514;5.708;2024-03-07T13:05:34;34.85;;;15.07;;
81697;SDS011;71109;52.514;5.708;2024-03-07T13:08:05;31.45;;;14.93;;
81697;SDS011;71109;52.514;5.708;2024-03-07T13:10:31;29.80;;;13.60;;
81697;SDS011;71109;52.514;5.708;2024-03-07T13:12:56;35.50;;;15.93;;
81697;SDS011;71109;52.514;5.708;2024-03-07T13:15:22;33.55;;;14.65;;
81697;SDS011;71109;52.514;5.708;2024-03-07T13:17:49;32.85;;;14.35;;
81697;SDS011;71109;52.514;5.708;2024-03-07T13:20:18;32.50;;;14.50;;
81697;SDS011;71109;52.514;5.708;2024-03-07T13:22:47;31.92;;;14.35;;
81697;SDS011;71109;52.514;5.708;2024-03-07T13:25:13;31.98;;;15.70;;
81697;SDS011;71109;52.514;5.708;2024-03-07T13:27:54;28.58;;;13.60;;
81697;SDS011;71109;52.514;5.708;2024-03-07T13:30:28;28.13;;;14.85;;
81697;SDS011;71109;52.514;5.708;2024-03-07T13:32:56;28.80;;;13.98;;
81697;SDS011;71109;52.514;5.708;2024-03-07T13:35:25;27.27;;;12.13;;
81697;SDS011;71109;52.514;5.708;2024-03-07T13:37:51;28.88;;;13.98;;
81697;SDS011;71109;52.514;5.708;2024-03-07T13:40:20;30.50;;;14.80;;
81697;SDS011;71109;52.514;5.708;2024-03-07T13:42:53;31.17;;;13.95;;
81697;SDS011;71109;52.514;5.708;2024-03-07T13:45:23;28.48;;;14.20;;
81697;SDS011;71109;52.514;5.708;2024-03-07T13:47:51;30.27;;;14.30;;
81697;SDS011;71109;52.514;5.708;2024-03-07T13:50:19;31.63;;;14.40;;
81697;SDS011;71109;52.514;5.708;2024-03-07T13:52:47;29.40;;;12.85;;
81697;SDS011;71109;52.514;5.708;2024-03-07T13:55:32;35.03;;;15.80;;
81697;SDS011;71109;52.514;5.708;2024-03-07T13:58:01;27.60;;;13.05;;
81697;SDS011;71109;52.514;5.708;2024-03-07T14:03:26;31.10;;;13.95;;
81697;SDS011;71109;52.514;5.708;2024-03-07T14:06:04;28.45;;;12.93;;
81697;SDS011;71109;52.514;5.708;2024-03-07T14:28:38;38.50;;;14.77;;
81697;SDS011;71109;52.514;5.708;2024-03-07T14:31:13;29.60;;;13.65;;
81697;SDS011;71109;52.514;5.708;2024-03-07T14:33:49;32.80;;;14.13;;
81697;SDS011;71109;52.514;5.708;2024-03-07T14:36:23;29.35;;;14.38;;
81697;SDS011;71109;52.514;5.708;2024-03-07T14:39:00;27.35;;;11.75;;
81697;SDS011;71109;52.514;5.708;2024-03-07T14:41:45;30.25;;;13.45;;
81697;SDS011;71109;52.514;5.708;2024-03-07T14:44:14;36.15;;;15.88;;
81697;SDS011;71109;52.514;5.708;2024-03-07T14:46:39;32.85;;;14.57;;
81697;SDS011;71109;52.514;5.708;2024-03-07T14:49:05;35.53;;;15.48;;
81697;SDS011;71109;52.514;5.708;2024-03-07T14:51:33;39.25;;;15.95;;